Terminal Aerodrome Forecast
Issued by NWS

Home | Current Version | Previous Version | Text Only | Print | Product List | Glossary Off
Versions: 1 2 3 4 5 6 7 8 9 10 11 12

479
FTUS43 KGRB 230531
TAFAUW
TAF
KAUW 230531Z 2306/2406 17006KT P6SM SKC WS010/22040KT
      TEMPO 2309/2313 4SM BR
     FM231300 21008KT P6SM BKN250
     FM231600 21011G18KT P6SM SCT250
     FM240000 16004KT P6SM SKC=

USA.gov is the U.S. government's official web portal to all federal, state and local government web resources and services.